Time;durP1;ratioP1;P1;durP2;ratioP2;P2;SDS_P1;SDS_P2;PMS_P1;PMS_P2;Temp;Humidity;BMP_temperature;BMP_pressure;BME280_temperature;BME280_humidity;BME280_pressure;Samples;Min_cycle;Max_cycle;Signal;HPM_P1;HPM_P2
2023/07/14 00:00:41;;;;;;;1.08;0.50;;;;;;;;;;20861256;28;20221;-70
2023/07/14 00:10:43;;;;;;;0.47;0.40;;;;;;;;;;20906406;28;20729;-71
2023/07/14 00:20:44;;;;;;;0.93;0.40;;;;;;;;;;20917276;28;20214;-71
2023/07/14 00:30:47;;;;;;;0.30;0.30;;;23.50;89.90;;;;;;20919237;28;20594;-70
2023/07/14 00:40:49;;;;;;;0.85;0.52;;;;;;;;;;20930124;28;20292;-71
2023/07/14 00:50:51;;;;;;;1.60;0.50;;;;;;;;;;20933241;28;20721;-71
2023/07/14 01:01:10;;;;;;;1.33;0.57;;;;;;;;;;20935889;28;20272;-71
2023/07/14 01:11:15;;;;;;;0.70;0.40;;;;;;;;;;20882157;28;20233;-71
2023/07/14 01:21:21;;;;;;;1.23;0.40;;;;;;;;;;20928147;28;20215;-71
2023/07/14 01:31:24;;;;;;;1.30;0.50;;;;;;;;;;20913344;28;20217;-70
2023/07/14 01:41:28;;;;;;;2.17;0.50;;;;;;;;;;20922677;28;20391;-70
2023/07/14 01:51:33;;;;;;;0.82;0.40;;;;;;;;;;20899559;22;20220;-70
2023/07/14 02:01:37;;;;;;;0.50;0.40;;;23.00;99.90;;;;;;20839376;28;20211;-70
2023/07/14 02:11:40;;;;;;;1.13;0.50;;;22.60;99.90;;;;;;20853852;28;20222;-70
2023/07/14 02:21:43;;;;;;;0.85;0.50;;;;;;;;;;20843120;28;20593;-70
2023/07/14 02:31:50;;;;;;;0.57;0.50;;;;;;;;;;20931540;28;20233;-70
2023/07/14 02:41:55;;;;;;;0.52;0.30;;;;;;;;;;20909889;28;20226;-70
2023/07/14 02:51:57;;;;;;;1.38;0.60;;;;;;;;;;20827231;28;20775;-71
2023/07/14 03:01:59;;;;;;;2.67;0.45;;;;;;;;;;20925128;28;20260;-71
2023/07/14 03:12:01;;;;;;;1.88;0.57;;;;;;;;;;20848304;28;20296;-71
2023/07/14 03:22:02;;;;;;;1.92;0.50;;;;;;;;;;20918232;28;20505;-71
2023/07/14 03:32:04;;;;;;;3.43;0.67;;;21.70;99.30;;;;;;20910322;28;20233;-71
2023/07/14 03:42:07;;;;;;;1.02;0.50;;;;;;;;;;20861919;28;20225;-69
2023/07/14 03:52:08;;;;;;;1.43;0.40;;;21.70;97.50;;;;;;20867967;28;20302;-69
2023/07/14 04:02:10;;;;;;;3.00;0.70;;;;;;;;;;20892189;28;20216;-69
2023/07/14 04:12:12;;;;;;;3.60;0.70;;;;;;;;;;20921352;28;20219;-70
2023/07/14 04:22:14;;;;;;;1.33;0.70;;;;;;;;;;20943808;28;20218;-69
2023/07/14 04:32:16;;;;;;;1.03;0.43;;;;;;;;;;20942841;28;20742;-70
2023/07/14 04:42:18;;;;;;;1.73;0.70;;;;;;;;;;20904270;28;20692;-70
2023/07/14 04:52:19;;;;;;;2.23;0.43;;;;;;;;;;20858640;28;20230;-69
2023/07/14 05:02:22;;;;;;;1.90;0.60;;;;;;;;;;20899945;28;20233;-69
2023/07/14 05:12:24;;;;;;;1.47;0.90;;;;;;;;;;20897765;28;20827;-69
2023/07/14 05:22:26;;;;;;;2.93;0.70;;;;;;;;;;20944195;28;20263;-69
2023/07/14 05:32:27;;;;;;;3.07;0.70;;;;;;;;;;20897615;28;20214;-69
2023/07/14 05:42:29;;;;;;;2.87;1.00;;;;;;;;;;20846019;28;20645;-71
2023/07/14 05:52:32;;;;;;;3.07;0.80;;;;;;;;;;20868434;28;20376;-71
2023/07/14 06:02:34;;;;;;;4.33;1.87;;;;;;;;;;20828079;28;20217;-71
2023/07/14 06:12:36;;;;;;;2.23;1.00;;;;;;;;;;20854974;28;20250;-70
2023/07/14 06:22:42;;;;;;;1.43;0.70;;;;;;;;;;20869032;28;20231;-69
2023/07/14 06:32:45;;;;;;;1.50;0.63;;;;;;;;;;20857056;28;20265;-68
2023/07/14 06:42:47;;;;;;;0.90;0.60;;;;;;;;;;20846185;28;20267;-68
2023/07/14 06:52:49;;;;;;;3.73;0.80;;;;;;;;;;20896916;28;20590;-68
2023/07/14 07:02:51;;;;;;;1.17;0.70;;;;;;;;;;20855725;28;20267;-68
2023/07/14 07:12:53;;;;;;;1.77;0.70;;;;;;;;;;20861086;28;20230;-68
2023/07/14 07:22:55;;;;;;;1.05;0.55;;;;;;;;;;20889739;28;20229;-69
2023/07/14 07:32:58;;;;;;;2.17;0.63;;;;;;;;;;20886862;28;20326;-70
2023/07/14 07:43:01;;;;;;;0.70;0.53;;;;;;;;;;20877845;28;20219;-70
2023/07/14 07:53:03;;;;;;;2.20;0.50;;;;;;;;;;20923557;28;20280;-71
2023/07/14 08:03:05;;;;;;;0.80;0.50;;;;;;;;;;20855835;28;20219;-70
2023/07/14 08:13:06;;;;;;;1.08;0.45;;;;;;;;;;20892522;28;20368;-70
2023/07/14 08:23:13;;;;;;;3.72;0.65;;;;;;;;;;20926556;28;20217;-69
2023/07/14 08:33:15;;;;;;;1.40;0.52;;;;;;;;;;20851646;28;20284;-75
2023/07/14 08:43:24;;;;;;;1.00;0.50;;;;;;;;;;20944711;22;20285;-68
2023/07/14 08:53:29;;;;;;;2.53;0.55;;;25.00;92.80;;;;;;20915412;28;20634;-68
2023/07/14 09:03:37;;;;;;;1.33;0.57;;;;;;;;;;20951376;28;20254;-68
2023/07/14 09:14:11;;;;;;;1.33;0.60;;;25.40;86.90;;;;;;20952299;28;20261;-69
2023/07/14 09:24:15;;;;;;;1.67;0.70;;;25.70;83.40;;;;;;20949695;28;20617;-70
2023/07/14 09:34:26;;;;;;;0.88;0.55;;;;;;;;;;20932948;28;20717;-69
2023/07/14 09:44:29;;;;;;;0.70;0.30;;;;;;;;;;20918760;28;20228;-69
2023/07/14 09:54:31;;;;;;;1.23;0.82;;;;;;;;;;20893452;28;20219;-69
2023/07/14 10:04:36;;;;;;;0.98;0.47;;;;;;;;;;20895058;28;20212;-70
2023/07/14 10:14:40;;;;;;;1.85;0.65;;;;;;;;;;20891756;28;20304;-70
2023/07/14 10:24:47;;;;;;;0.60;0.40;;;;;;;;;;20885018;28;20242;-69
2023/07/14 10:35:11;;;;;;;3.33;0.43;;;;;;;;;;20951645;28;20224;-70
2023/07/14 10:45:13;;;;;;;1.75;0.50;;;;;;;;;;20911712;28;20215;-70
2023/07/14 10:55:28;;;;;;;0.93;0.57;;;28.00;82.40;;;;;;20938080;28;20630;-71
2023/07/14 11:05:32;;;;;;;1.48;0.50;;;28.30;73.80;;;;;;20966378;28;20207;-70
2023/07/14 11:15:47;;;;;;;0.90;0.70;;;28.00;80.60;;;;;;20885492;28;20823;-70
2023/07/14 11:25:49;;;;;;;0.70;0.50;;;;;;;;;;20910583;28;20231;-70
2023/07/14 11:35:54;;;;;;;1.38;0.63;;;;;;;;;;20857437;28;20254;-75
2023/07/14 11:46:02;;;;;;;0.85;0.30;;;;;;;;;;20856005;28;20220;-72
2023/07/14 11:56:18;;;;;;;0.98;0.50;;;;;;;;;;20874627;28;20263;-70
2023/07/14 12:06:20;;;;;;;0.93;0.30;;;;;;;;;;20931733;28;20264;-69
2023/07/14 12:16:24;;;;;;;0.50;0.40;;;27.90;76.80;;;;;;20925163;28;20784;-70
2023/07/14 12:26:32;;;;;;;2.03;0.65;;;27.70;70.40;;;;;;20921246;28;20274;-70
2023/07/14 12:36:34;;;;;;;0.75;0.32;;;;;;;;;;20927897;28;20224;-69
2023/07/14 12:46:38;;;;;;;1.20;0.50;;;;;;;;;;20937375;28;20217;-70
2023/07/14 12:56:40;;;;;;;0.63;0.45;;;;;;;;;;20933718;28;20717;-70
2023/07/14 13:06:43;;;;;;;2.80;0.73;;;;;;;;;;20928419;28;20225;-70
2023/07/14 13:16:53;;;;;;;0.73;0.40;;;;;;;;;;20896353;28;20237;-70
2023/07/14 13:27:00;;;;;;;1.55;0.52;;;;;;;;;;20935477;28;20709;-74
2023/07/14 13:37:04;;;;;;;0.95;0.50;;;;;;;;;;20921062;28;20648;-71
2023/07/14 13:47:15;;;;;;;0.65;0.45;;;;;;;;;;20910221;28;20289;-70
2023/07/14 13:57:20;;;;;;;3.10;0.50;;;;;;;;;;20894096;28;20252;-71
2023/07/14 14:07:22;;;;;;;0.85;0.50;;;;;;;;;;20886556;28;20261;-72
2023/07/14 14:17:35;;;;;;;1.42;0.55;;;29.50;73.10;;;;;;20952035;28;20286;-69
2023/07/14 14:27:37;;;;;;;0.60;0.35;;;;;;;;;;20887405;28;20220;-70
2023/07/14 14:37:39;;;;;;;1.25;0.50;;;;;;;;;;20888288;28;20270;-70
2023/07/14 14:47:40;;;;;;;1.75;0.60;;;;;;;;;;20915211;28;20285;-69
2023/07/14 14:57:50;;;;;;;0.52;0.43;;;;;;;;;;20888195;28;20294;-70
2023/07/14 15:07:55;;;;;;;1.40;0.60;;;;;;;;;;20905330;23;20250;-74
2023/07/14 15:17:58;;;;;;;2.15;0.43;;;;;;;;;;20914049;28;20285;-73
2023/07/14 15:28:00;;;;;;;3.55;0.50;;;;;;;;;;20902374;28;20327;-74
2023/07/14 15:38:03;;;;;;;0.90;0.43;;;;;;;;;;20949899;28;20215;-73
2023/07/14 15:48:10;;;;;;;3.70;0.57;;;;;;;;;;20943232;28;20286;-73
2023/07/14 15:58:13;;;;;;;1.25;0.40;;;;;;;;;;20960649;28;20248;-72
2023/07/14 16:08:26;;;;;;;2.10;0.40;;;;;;;;;;20965919;28;20781;-74
2023/07/14 16:18:28;;;;;;;0.98;0.40;;;;;;;;;;20973151;28;20277;-74
2023/07/14 16:28:29;;;;;;;0.98;0.50;;;;;;;;;;20974822;28;20224;-74
2023/07/14 16:38:34;;;;;;;0.55;0.50;;;;;;;;;;20994113;28;20239;-75
2023/07/14 16:48:36;;;;;;;1.23;0.52;;;;;;;;;;20968371;28;20285;-73
2023/07/14 16:58:38;;;;;;;0.50;0.32;;;;;;;;;;20898750;28;20336;-74
2023/07/14 17:08:41;;;;;;;0.75;0.40;;;;;;;;;;20967701;28;20211;-75
2023/07/14 17:18:43;;;;;;;1.42;0.65;;;;;;;;;;20961573;28;20299;-74
2023/07/14 17:28:45;;;;;;;0.73;0.40;;;;;;;;;;20938791;28;20279;-76
2023/07/14 17:38:47;;;;;;;1.05;0.40;;;;;;;;;;20960070;28;20221;-74
2023/07/14 17:48:48;;;;;;;1.13;0.50;;;;;;;;;;20861506;28;20762;-74
2023/07/14 17:58:51;;;;;;;0.88;0.45;;;;;;;;;;20930048;28;20240;-77
2023/07/14 18:08:52;;;;;;;1.88;0.55;;;;;;;;;;20972878;28;21071;-74
2023/07/14 18:18:54;;;;;;;0.70;0.38;;;;;;;;;;20914703;28;20275;-76
2023/07/14 18:28:56;;;;;;;0.98;0.40;;;;;;;;;;20979323;28;20724;-78
2023/07/14 18:38:58;;;;;;;1.20;0.40;;;;;;;;;;20945950;28;20240;-75
2023/07/14 18:48:59;;;;;;;1.05;0.43;;;;;;;;;;20930871;28;20426;-76
2023/07/14 18:59:01;;;;;;;1.38;0.50;;;;;;;;;;20965255;28;20224;-77
2023/07/14 19:09:15;;;;;;;2.20;0.47;;;28.70;75.80;;;;;;21032654;28;20699;-76
2023/07/14 19:19:21;;;;;;;2.25;0.70;;;;;;;;;;20964602;28;20390;-75
2023/07/14 19:29:23;;;;;;;3.10;0.80;;;;;;;;;;20969017;28;20235;-75
2023/07/14 19:39:25;;;;;;;3.20;0.73;;;;;;;;;;20919622;28;20382;-77
2023/07/14 19:49:27;;;;;;;4.25;1.27;;;;;;;;;;20886135;28;20212;-75
2023/07/14 19:59:32;;;;;;;4.18;0.77;;;;;;;;;;20884596;28;20641;-76
2023/07/14 20:09:36;;;;;;;1.63;0.75;;;;;;;;;;20973350;28;20228;-76
2023/07/14 20:19:37;;;;;;;2.65;0.88;;;;;;;;;;20987205;28;20286;-75
2023/07/14 20:29:39;;;;;;;2.53;0.70;;;;;;;;;;20971843;28;20368;-74
2023/07/14 20:39:42;;;;;;;1.55;0.60;;;;;;;;;;20971277;28;20232;-75
2023/07/14 20:49:44;;;;;;;1.73;0.60;;;;;;;;;;20971771;28;20269;-76
2023/07/14 20:59:47;;;;;;;2.40;0.70;;;;;;;;;;20988577;28;20942;-75
2023/07/14 21:09:49;;;;;;;1.55;0.80;;;;;;;;;;20952542;28;20222;-76
2023/07/14 21:19:51;;;;;;;1.27;0.40;;;;;;;;;;20904501;22;20221;-67
2023/07/14 21:29:52;;;;;;;1.65;0.80;;;;;;;;;;20732719;28;20221;-67
2023/07/14 21:39:55;;;;;;;1.42;0.70;;;;;;;;;;20758372;28;20225;-67
2023/07/14 21:49:57;;;;;;;1.23;0.60;;;;;;;;;;20725413;28;20238;-67
2023/07/14 22:00:00;;;;;;;3.40;0.90;;;;;;;;;;20735333;28;20235;-67
2023/07/14 22:10:02;;;;;;;1.45;0.80;;;;;;;;;;20741556;28;20701;-66
2023/07/14 22:20:04;;;;;;;1.70;0.90;;;;;;;;;;20739162;28;20260;-66
2023/07/14 22:30:06;;;;;;;1.77;0.75;;;26.60;90.10;;;;;;20769116;28;20286;-67
2023/07/14 22:40:12;;;;;;;2.65;1.00;;;;;;;;;;20782918;28;20225;-66
2023/07/14 22:50:15;;;;;;;4.28;1.00;;;;;;;;;;20784979;28;20214;-66
2023/07/14 23:00:18;;;;;;;2.67;0.90;;;26.10;93.20;;;;;;20784207;28;20237;-67
2023/07/14 23:10:20;;;;;;;2.25;0.60;;;;;;;;;;20820471;28;20713;-67
2023/07/14 23:20:22;;;;;;;2.42;0.77;;;;;;;;;;20784529;28;20283;-67
2023/07/14 23:30:27;;;;;;;1.15;0.73;;;;;;;;;;20781831;28;20288;-67
2023/07/14 23:40:28;;;;;;;2.38;0.80;;;;;;;;;;20781508;28;20733;-67
2023/07/14 23:50:32;;;;;;;1.88;0.90;;;;;;;;;;20780477;28;20232;-66
